Time;durP1;ratioP1;P1;durP2;ratioP2;P2;SDS_P1;SDS_P2;PMS_P1;PMS_P2;Temp;Humidity;BMP_temperature;BMP_pressure;BME280_temperature;BME280_humidity;BME280_pressure;Samples;Min_cycle;Max_cycle;Signal;HPM_P1;HPM_P2
2021/09/16 00:00:25;;;;;;;9.25;7.40;;;;;;;18.11;100.00;99136.09;5075493;28;20279;-75
2021/09/16 00:02:52;;;;;;;8.50;7.53;;;;;;;18.25;100.00;99134.75;5075726;28;20605;-72
2021/09/16 00:05:19;;;;;;;8.60;7.15;;;;;;;18.42;100.00;99143.13;5075825;28;20207;-72
2021/09/16 00:07:46;;;;;;;10.63;7.22;;;;;;;18.38;100.00;99141.69;5075717;28;20204;-73
2021/09/16 00:10:14;;;;;;;7.53;6.43;;;;;;;18.15;100.00;99154.84;5075797;28;20183;-73
2021/09/16 00:12:40;;;;;;;7.18;6.20;;;;;;;18.11;100.00;99160.59;5075373;28;20227;-73
2021/09/16 00:15:10;;;;;;;7.75;7.05;;;;;;;18.14;100.00;99159.44;5075161;28;20239;-73
2021/09/16 00:17:37;;;;;;;9.27;8.32;;;;;;;18.33;100.00;99159.34;5075314;28;20209;-73
2021/09/16 00:20:05;;;;;;;8.75;7.75;;;;;;;18.34;100.00;99149.34;5075441;28;20642;-73
2021/09/16 00:22:32;;;;;;;9.50;8.50;;;;;;;18.33;100.00;99151.19;5075712;28;20290;-73
2021/09/16 00:24:59;;;;;;;10.18;8.30;;;;;;;18.32;100.00;99154.06;5075216;28;20226;-73
2021/09/16 00:27:25;;;;;;;9.90;8.27;;;;;;;18.21;100.00;99160.56;5075231;28;20318;-72
2021/09/16 00:29:52;;;;;;;10.68;8.30;;;;;;;18.31;100.00;99165.97;5075031;28;20568;-73
2021/09/16 00:32:20;;;;;;;12.20;9.60;;;;;;;18.39;100.00;99174.28;5075002;28;20188;-74
2021/09/16 00:34:46;;;;;;;10.95;9.82;;;;;;;18.47;100.00;99179.81;5074881;28;20191;-72
2021/09/16 00:37:13;;;;;;;10.13;9.07;;;;;;;18.42;100.00;99181.28;5074888;28;20293;-72
2021/09/16 00:39:39;;;;;;;11.98;10.32;;;;;;;18.24;100.00;99182.06;5074861;28;20194;-72
2021/09/16 00:42:06;;;;;;;12.05;10.65;;;;;;;18.21;100.00;99181.50;5075059;28;20188;-73
2021/09/16 00:44:33;;;;;;;11.75;10.65;;;;;;;18.33;100.00;99181.16;5074749;28;20291;-73
2021/09/16 00:46:59;;;;;;;11.48;10.30;;;;;;;18.41;100.00;99177.72;5074842;28;20200;-73
2021/09/16 00:49:27;;;;;;;11.73;10.52;;;;;;;18.55;100.00;99182.66;5074998;28;20270;-73
2021/09/16 00:51:57;;;;;;;10.48;9.38;;;;;;;18.51;100.00;99194.00;5074840;28;20204;-73
2021/09/16 00:54:25;;;;;;;11.43;10.23;;;;;;;18.70;100.00;99195.78;5074759;28;20187;-73
2021/09/16 00:56:54;;;;;;;12.98;11.27;;;;;;;18.87;100.00;99195.00;5074866;28;20195;-73
2021/09/16 00:59:22;;;;;;;11.88;10.68;;;;;;;18.66;100.00;99183.47;5074211;28;20303;-73
2021/09/16 01:01:49;;;;;;;12.55;11.25;;;;;;;18.65;100.00;99195.38;5075014;28;20189;-73
2021/09/16 01:04:16;;;;;;;17.20;11.75;;;;;;;18.65;100.00;99195.38;5074391;28;20280;-73
2021/09/16 01:06:44;;;;;;;13.30;11.50;;;;;;;18.72;100.00;99196.50;5074810;28;20294;-73
2021/09/16 01:09:11;;;;;;;14.18;11.25;;;;;;;18.71;100.00;99198.38;5074201;28;20182;-73
2021/09/16 01:11:37;;;;;;;14.95;12.13;;;;;;;18.65;100.00;99201.69;5073967;28;20192;-73
2021/09/16 01:14:04;;;;;;;14.30;12.43;;;;;;;18.49;100.00;99206.94;5074249;28;20609;-73
2021/09/16 01:16:31;;;;;;;13.15;11.77;;;;;;;18.56;100.00;99208.03;5074250;28;20192;-73
2021/09/16 01:18:57;;;;;;;12.32;10.90;;;;;;;18.51;100.00;99218.53;5074011;28;20208;-73
2021/09/16 01:21:24;;;;;;;14.98;11.95;;;;;;;18.59;100.00;99212.34;5074169;28;20241;-73
2021/09/16 01:23:52;;;;;;;12.75;11.45;;;;;;;18.63;100.00;99219.22;5074087;28;20188;-73
2021/09/16 01:26:19;;;;;;;10.37;9.27;;;;;;;18.77;100.00;99224.22;5073537;28;20760;-74
2021/09/16 01:28:46;;;;;;;12.75;10.80;;;;;;;18.80;100.00;99221.19;5073860;28;20496;-73
2021/09/16 01:31:12;;;;;;;16.10;10.80;;;;;;;18.63;100.00;99211.03;5073849;28;20185;-73
2021/09/16 01:33:39;;;;;;;13.82;10.95;;;;;;;18.49;100.00;99213.22;5073836;28;20235;-73
2021/09/16 01:36:09;;;;;;;12.45;9.90;;;;;;;18.52;100.00;99209.38;5074093;28;20188;-73
2021/09/16 01:38:36;;;;;;;12.50;9.40;;;;;;;18.59;100.00;99206.88;5073349;28;20212;-73
2021/09/16 01:41:04;;;;;;;11.27;9.20;;;;;;;18.62;100.00;99206.59;5074231;28;20209;-73
2021/09/16 01:43:30;;;;;;;10.70;8.30;;;;;;;18.64;100.00;99201.84;5074268;28;20666;-74
2021/09/16 01:45:57;;;;;;;9.95;8.73;;;;;;;18.60;100.00;99203.16;5073944;28;20211;-73
2021/09/16 01:48:24;;;;;;;9.35;8.05;;;;;;;18.52;100.00;99202.06;5073563;28;20236;-73
2021/09/16 01:50:50;;;;;;;9.40;8.43;;;;;;;18.53;100.00;99200.19;5073652;28;20295;-73
2021/09/16 01:53:17;;;;;;;9.60;8.43;;;;;;;18.50;100.00;99198.63;5073901;28;20195;-73
2021/09/16 01:55:43;;;;;;;10.25;8.45;;;;;;;18.55;100.00;99198.16;5073784;28;20184;-73
2021/09/16 01:58:11;;;;;;;10.77;8.40;;;;;;;18.54;100.00;99201.88;5073698;28;20564;-72
2021/09/16 02:00:38;;;;;;;9.35;8.50;;;;;;;18.43;100.00;99200.22;5073759;28;20279;-72
2021/09/16 02:03:04;;;;;;;10.40;8.82;;;;;;;18.54;100.00;99194.59;5073546;28;20191;-74
2021/09/16 02:05:31;;;;;;;12.25;8.80;;;;;;;18.49;100.00;99199.59;5073353;28;20295;-73
2021/09/16 02:07:57;;;;;;;9.07;8.10;;;;;;;18.34;100.00;99195.66;5073328;28;20193;-73
2021/09/16 02:10:24;;;;;;;9.43;8.45;;;;;;;18.48;100.00;99197.91;5073225;28;20283;-73
2021/09/16 02:12:51;;;;;;;8.68;7.72;;;;;;;18.39;100.00;99190.63;5073502;28;20613;-73
2021/09/16 02:15:19;;;;;;;8.77;7.97;;;;;;;18.55;100.00;99195.44;5073597;28;20616;-73
2021/09/16 02:17:45;;;;;;;10.95;9.60;;;;;;;18.55;100.00;99190.84;5073548;28;20194;-72
2021/09/16 02:20:13;;;;;;;9.90;8.18;;;;;;;18.52;100.00;99195.75;5073382;28;20665;-73
2021/09/16 02:22:39;;;;;;;9.45;8.15;;;;;;;18.55;100.00;99196.28;5073869;28;20223;-73
2021/09/16 02:25:07;;;;;;;10.27;9.10;;;;;;;18.42;100.00;99205.81;5073360;28;20199;-73
2021/09/16 02:27:33;;;;;;;10.50;8.15;;;;;;;18.49;100.00;99190.56;5073114;28;20318;-73
2021/09/16 02:30:00;;;;;;;8.80;7.90;;;;;;;18.48;100.00;99192.44;5072885;28;20190;-73
2021/09/16 02:32:28;;;;;;;13.68;8.20;;;;;;;18.41;100.00;99191.34;5073358;28;20205;-72
2021/09/16 02:34:54;;;;;;;8.82;7.90;;;;;;;18.31;100.00;99193.22;5073404;28;20192;-74
2021/09/16 02:37:22;;;;;;;9.98;8.77;;;;;;;18.30;100.00;99196.97;5073442;28;20196;-74
2021/09/16 02:39:49;;;;;;;10.82;9.50;;;;;;;18.22;100.00;99191.38;5076979;28;20302;-74
2021/09/16 02:42:16;;;;;;;12.68;8.88;;;;;;;18.16;100.00;99190.13;5077227;28;20690;-75
2021/09/16 02:44:42;;;;;;;9.98;8.85;;;;;;;18.20;100.00;99196.13;5077164;28;20279;-74
2021/09/16 02:47:09;;;;;;;8.65;7.70;;;;;;;18.35;100.00;99189.19;5077382;28;20565;-73
2021/09/16 02:49:37;;;;;;;8.63;7.80;;;;;;;18.28;100.00;99197.09;5076948;28;20203;-73
2021/09/16 02:52:04;;;;;;;11.88;7.82;;;;;;;18.25;100.00;99199.28;5077083;28;20191;-72
2021/09/16 02:54:31;;;;;;;12.82;9.50;;;;;;;18.20;100.00;99207.88;5077098;28;20515;-73
2021/09/16 02:56:57;;;;;;;12.00;9.07;;;;;;;18.03;100.00;99209.50;5077380;28;20210;-73
2021/09/16 02:59:24;;;;;;;15.07;9.35;;;;;;;18.04;100.00;99208.47;5076963;28;20215;-73
2021/09/16 03:01:50;;;;;;;11.65;8.45;;;;;;;18.09;100.00;99199.88;5076419;28;20273;-73
2021/09/16 03:04:17;;;;;;;11.80;9.55;;;;;;;18.13;100.00;99206.75;5076557;28;20212;-73
2021/09/16 03:06:45;;;;;;;12.13;9.23;;;;;;;18.14;100.00;99205.75;5076876;28;20271;-73
2021/09/16 03:09:12;;;;;;;11.20;9.50;;;;;;;18.21;100.00;99208.75;5077086;28;20187;-73
2021/09/16 03:11:38;;;;;;;9.98;8.98;;;;;;;18.31;100.00;99209.56;5076317;28;20295;-73
2021/09/16 03:14:05;;;;;;;12.57;9.43;;;;;;;18.22;100.00;99210.47;5076592;28;20274;-73
2021/09/16 03:16:32;;;;;;;10.30;9.30;;;;;;;18.40;100.00;99203.22;5076604;28;20291;-73
2021/09/16 03:18:59;;;;;;;11.70;10.07;;;;;;;18.28;100.00;99210.72;5076409;28;20296;-73
2021/09/16 03:21:25;;;;;;;11.73;10.07;;;;;;;18.22;100.00;99199.56;5076655;28;20278;-73
2021/09/16 03:23:53;;;;;;;20.38;10.18;;;;;;;18.31;100.00;99213.16;5076090;28;20203;-73
2021/09/16 03:26:20;;;;;;;12.05;10.20;;;;;;;18.36;100.00;99211.84;5076098;28;20242;-73
2021/09/16 03:28:46;;;;;;;13.35;9.73;;;;;;;18.38;100.00;99210.69;5076299;28;20183;-73
2021/09/16 03:31:13;;;;;;;11.45;10.25;;;;;;;18.32;100.00;99217.59;5075762;28;20196;-73
2021/09/16 03:33:39;;;;;;;11.68;10.32;;;;;;;18.22;100.00;99215.91;5076412;28;20198;-73
2021/09/16 03:36:06;;;;;;;11.50;10.30;;;;;;;18.20;100.00;99221.50;5076024;28;20184;-73
2021/09/16 03:38:33;;;;;;;12.95;10.38;;;;;;;18.37;100.00;99229.94;5076361;28;20335;-73
2021/09/16 03:41:01;;;;;;;11.50;10.40;;;;;;;18.21;100.00;99230.56;5076183;28;20230;-73
2021/09/16 03:43:28;;;;;;;14.05;11.90;;;;;;;18.18;100.00;99220.81;5075868;28;20184;-73
2021/09/16 03:45:55;;;;;;;15.98;11.55;;;;;;;18.29;100.00;99231.53;5076265;28;20656;-74
2021/09/16 03:48:22;;;;;;;16.23;13.02;;;;;;;18.27;100.00;99228.09;5076054;28;20548;-74
2021/09/16 03:50:48;;;;;;;15.75;12.38;;;;;;;18.35;100.00;99238.25;5075638;28;20294;-74
2021/09/16 03:53:16;;;;;;;22.77;13.60;;;;;;;18.56;100.00;99229.84;5075749;28;20306;-73
2021/09/16 03:55:42;;;;;;;21.08;13.68;;;;;;;18.36;100.00;99245.44;5076113;28;20187;-74
2021/09/16 03:58:10;;;;;;;19.55;13.25;;;;;;;18.33;100.00;99243.00;5076060;28;20298;-73
2021/09/16 04:00:37;;;;;;;23.20;13.40;;;;;;;18.36;100.00;99247.28;5075656;28;20222;-73
2021/09/16 04:03:08;;;;;;;17.67;11.00;;;;;;;18.35;100.00;99240.97;5075617;28;20282;-74
2021/09/16 04:05:34;;;;;;;19.65;13.40;;;;;;;18.50;100.00;99235.94;5075383;28;20210;-73
2021/09/16 04:08:01;;;;;;;19.70;13.38;;;;;;;18.57;100.00;99237.03;5076192;28;20194;-74
2021/09/16 04:10:28;;;;;;;16.15;12.25;;;;;;;18.52;100.00;99233.91;5075549;28;20180;-74
2021/09/16 04:12:55;;;;;;;19.55;12.18;;;;;;;18.52;100.00;99240.22;5075744;28;20226;-73
2021/09/16 04:15:23;;;;;;;27.08;13.88;;;;;;;18.18;100.00;99239.00;5075611;28;20199;-73
2021/09/16 04:17:49;;;;;;;18.50;13.07;;;;;;;18.07;100.00;99245.50;5074943;28;20184;-74
2021/09/16 04:20:16;;;;;;;17.30;12.25;;;;;;;17.96;100.00;99240.22;5074909;28;20251;-73
2021/09/16 04:22:42;;;;;;;22.60;14.35;;;;;;;17.94;100.00;99240.34;5075415;28;20217;-73
2021/09/16 04:25:10;;;;;;;22.63;14.25;;;;;;;17.97;100.00;99248.22;5075244;28;20198;-73
2021/09/16 04:27:36;;;;;;;21.08;13.27;;;;;;;17.96;100.00;99248.38;5074646;28;20318;-73
2021/09/16 04:30:03;;;;;;;16.10;13.13;;;;;;;18.08;100.00;99253.50;5075151;28;20280;-74
2021/09/16 04:32:31;;;;;;;19.60;13.35;;;;;;;18.01;100.00;99254.25;5075305;28;20188;-74
2021/09/16 04:34:58;;;;;;;19.52;13.75;;;;;;;18.01;100.00;99260.53;5075400;28;20286;-74
2021/09/16 04:37:25;;;;;;;22.77;15.05;;;;;;;18.13;100.00;99266.69;5075206;28;20707;-73
2021/09/16 04:39:52;;;;;;;19.00;14.50;;;;;;;18.00;100.00;99261.56;5074975;28;20224;-73
2021/09/16 04:42:18;;;;;;;26.42;15.20;;;;;;;18.11;100.00;99261.41;5075207;28;20600;-74
2021/09/16 04:44:45;;;;;;;25.00;15.77;;;;;;;18.21;100.00;99261.38;5074859;28;20225;-74
2021/09/16 04:47:12;;;;;;;20.05;13.93;;;;;;;18.07;100.00;99261.84;5074399;28;20633;-73
2021/09/16 04:49:39;;;;;;;18.45;13.65;;;;;;;18.05;100.00;99272.88;5074557;28;20274;-73
2021/09/16 04:52:07;;;;;;;22.25;14.50;;;;;;;18.06;100.00;99260.97;5074803;28;20289;-74
2021/09/16 04:54:33;;;;;;;17.73;15.13;;;;;;;17.88;100.00;99268.16;5074515;28;20199;-73
2021/09/16 04:57:00;;;;;;;17.98;14.57;;;;;;;18.00;100.00;99269.72;5074711;28;20667;-74
2021/09/16 04:59:26;;;;;;;20.77;15.98;;;;;;;18.02;100.00;99278.63;5073839;28;20210;-74
2021/09/16 05:01:53;;;;;;;21.25;16.27;;;;;;;18.12;100.00;99290.34;5073488;28;20684;-73
2021/09/16 05:04:19;;;;;;;17.20;15.40;;;;;;;18.08;100.00;99280.75;5074380;28;20199;-73
2021/09/16 05:06:48;;;;;;;18.95;15.00;;;;;;;17.91;100.00;99278.78;5074162;28;20283;-74
2021/09/16 05:09:14;;;;;;;19.05;15.85;;;;;;;17.85;100.00;99296.53;5073934;28;20534;-74
2021/09/16 05:11:42;;;;;;;20.30;16.27;;;;;;;17.84;100.00;99294.81;5074075;28;20188;-74
2021/09/16 05:14:09;;;;;;;19.10;15.48;;;;;;;17.95;100.00;99296.53;5074360;28;20230;-73
2021/09/16 05:16:37;;;;;;;18.88;16.42;;;;;;;18.02;100.00;99291.34;5073987;28;20210;-73
2021/09/16 05:19:03;;;;;;;19.80;15.75;;;;;;;17.86;100.00;99297.38;5073188;28;20233;-74
2021/09/16 05:21:30;;;;;;;18.33;16.10;;;;;;;18.00;100.00;99296.09;5074411;28;20588;-74
2021/09/16 05:23:58;;;;;;;24.25;17.50;;;;;;;17.88;100.00;99290.78;5073153;28;20207;-74
2021/09/16 05:26:24;;;;;;;17.98;15.52;;;;;;;17.62;100.00;99293.19;5073009;28;20318;-74
2021/09/16 05:28:51;;;;;;;19.40;16.08;;;;;;;17.66;100.00;99293.75;5073456;28;20226;-74
2021/09/16 05:31:18;;;;;;;22.58;16.85;;;;;;;17.59;100.00;99293.50;5072451;28;20642;-74
2021/09/16 05:33:44;;;;;;;19.55;15.77;;;;;;;17.74;100.00;99301.22;5073350;28;20217;-74
2021/09/16 05:36:11;;;;;;;16.83;14.85;;;;;;;17.69;100.00;99296.22;5073221;28;20284;-75
2021/09/16 05:38:38;;;;;;;18.10;14.95;;;;;;;17.68;100.00;99302.63;5072881;28;20204;-75
2021/09/16 05:41:05;;;;;;;16.65;14.95;;;;;;;17.51;100.00;99302.34;5072821;28;20234;-73
2021/09/16 05:43:32;;;;;;;16.23;14.52;;;;;;;17.56;100.00;99306.50;5073010;28;20647;-73
2021/09/16 05:45:59;;;;;;;18.13;14.55;;;;;;;17.57;100.00;99306.38;5072724;28;20280;-74
2021/09/16 05:48:25;;;;;;;21.40;15.85;;;;;;;17.43;100.00;99318.50;5072395;28;20612;-74
2021/09/16 05:50:52;;;;;;;19.08;14.13;;;;;;;17.72;100.00;99306.81;5073055;28;20267;-75
2021/09/16 05:53:18;;;;;;;17.08;14.82;;;;;;;17.81;100.00;99311.44;5073403;28;20648;-74
2021/09/16 05:55:46;;;;;;;16.98;14.95;;;;;;;17.63;100.00;99318.53;5073276;28;20641;-74
2021/09/16 05:58:14;;;;;;;18.35;15.68;;;;;;;17.55;100.00;99319.25;5073381;28;20198;-74
2021/09/16 06:00:41;;;;;;;19.58;15.57;;;;;;;17.62;100.00;99323.13;5073075;28;20317;-74
2021/09/16 06:03:07;;;;;;;19.27;14.65;;;;;;;17.59;100.00;99312.53;5069850;28;20195;-75
2021/09/16 06:05:34;;;;;;;19.75;15.30;;;;;;;17.86;100.00;99316.44;5071550;28;20217;-74
2021/09/16 06:08:01;;;;;;;16.88;14.93;;;;;;;17.76;100.00;99319.13;5071390;28;20559;-74
2021/09/16 06:10:27;;;;;;;15.90;13.60;;;;;;;17.64;100.00;99312.97;5069420;28;20239;-75
2021/09/16 06:12:54;;;;;;;20.83;15.77;;;;;;;17.70;100.00;99322.41;5072461;28;20208;-74
2021/09/16 06:15:22;;;;;;;19.35;14.20;;;;;;;17.63;100.00;99329.44;5072961;28;20187;-74
2021/09/16 06:17:49;;;;;;;19.77;13.93;;;;;;;17.72;100.00;99334.88;5073628;28;20198;-74
2021/09/16 06:20:15;;;;;;;17.65;14.00;;;;;;;17.54;100.00;99343.91;5072795;28;20246;-74
2021/09/16 06:22:46;;;;;;;18.10;14.15;;;;;;;17.56;100.00;99347.34;5073443;28;20240;-73
2021/09/16 06:25:14;;;;;;;14.57;12.98;;;;;;;17.46;100.00;99347.31;5073101;28;20191;-73
2021/09/16 06:27:41;;;;;;;15.02;13.25;;;;;;;17.64;100.00;99355.69;5073041;28;20628;-73
2021/09/16 06:30:09;;;;;;;15.15;13.55;;;;;;;17.61;100.00;99351.34;5073270;28;20512;-75
2021/09/16 06:32:38;;;;;;;15.10;13.52;;;;;;;17.68;100.00;99355.25;5072030;28;20293;-74
2021/09/16 06:35:05;;;;;;;13.63;12.23;;;;;;;17.59;100.00;99353.38;5071255;28;20202;-75
2021/09/16 06:37:31;;;;;;;17.92;13.23;;;;;;;17.72;100.00;99356.66;5073068;28;20187;-72
2021/09/16 06:39:58;;;;;;;14.40;12.20;;;;;;;17.67;98.86;99345.34;5073002;28;20230;-73
2021/09/16 06:42:25;;;;;;;15.02;11.52;;;;;;;17.57;97.67;99349.94;5072924;28;20280;-73
2021/09/16 06:44:52;;;;;;;15.52;11.38;;;;;;;17.71;97.56;99357.69;5073260;28;20195;-73
2021/09/16 06:47:19;;;;;;;12.23;10.70;;;;;;;18.01;94.37;99349.59;5073127;28;20243;-73
2021/09/16 06:49:48;;;;;;;12.43;10.75;;;;;;;17.78;95.18;99349.81;5073031;28;20195;-73
2021/09/16 06:52:15;;;;;;;13.32;11.38;;;;;;;17.86;94.88;99340.97;5073335;28;20187;-73
2021/09/16 06:54:42;;;;;;;11.73;9.95;;;;;;;17.90;92.65;99347.84;5073533;28;20268;-73
2021/09/16 06:57:08;;;;;;;11.85;9.57;;;;;;;18.04;92.08;99357.47;5072814;28;20184;-73
2021/09/16 06:59:35;;;;;;;12.48;10.10;;;;;;;17.92;91.15;99354.00;5072956;28;20198;-74
2021/09/16 07:02:01;;;;;;;9.50;8.07;;;;;;;17.70;88.36;99355.97;5073271;28;20540;-72
2021/09/16 07:04:28;;;;;;;9.80;8.45;;;;;;;17.90;89.74;99348.69;5073214;28;20213;-74
2021/09/16 07:06:58;;;;;;;10.50;8.75;;;;;;;17.96;90.62;99358.19;5072869;28;20278;-74
2021/09/16 07:09:25;;;;;;;11.00;8.35;;;;;;;18.23;88.46;99368.38;5072477;28;20242;-74
2021/09/16 07:11:51;;;;;;;12.88;8.60;;;;;;;18.60;86.61;99383.13;5072835;28;20189;-73
2021/09/16 07:14:18;;;;;;;9.55;8.50;;;;;;;19.02;82.72;99380.91;5072825;28;20192;-74
2021/09/16 07:16:45;;;;;;;9.60;8.10;;;;;;;19.05;81.50;99390.66;5072857;28;20314;-73
2021/09/16 07:19:12;;;;;;;9.93;8.40;;;;;;;18.83;80.90;99387.25;5072619;28;20189;-73
2021/09/16 07:21:38;;;;;;;8.93;7.72;;;;;;;18.66;81.46;99388.84;5072273;28;20216;-73
2021/09/16 07:24:08;;;;;;;9.50;7.82;;;;;;;18.77;80.55;99393.31;5073800;28;20298;-74
2021/09/16 07:26:35;;;;;;;11.68;7.93;;;;;;;18.71;81.12;99396.59;5075931;28;20236;-74
2021/09/16 07:29:02;;;;;;;8.85;7.95;;;;;;;18.36;83.23;99397.19;5076357;28;20211;-74
2021/09/16 07:31:29;;;;;;;8.95;7.88;;;;;;;17.90;84.30;99403.16;5075492;28;20202;-72
2021/09/16 07:33:56;;;;;;;7.93;7.10;;;;;;;17.85;86.14;99408.19;5075789;28;20279;-73
2021/09/16 07:36:22;;;;;;;15.52;8.80;;;;;;;18.15;84.01;99416.41;5075813;28;20200;-73
2021/09/16 07:38:49;;;;;;;9.80;6.75;;;;;;;18.59;81.49;99414.09;5075395;28;20292;-74
2021/09/16 07:41:17;;;;;;;8.20;7.40;;;;;;;18.66;81.32;99420.72;5075825;28;20307;-74
2021/09/16 07:43:44;;;;;;;9.75;7.53;;;;;;;18.94;80.30;99425.28;5075548;28;20274;-74
2021/09/16 07:46:11;;;;;;;10.77;7.65;;;;;;;18.44;79.77;99421.88;5075753;28;20290;-73
2021/09/16 07:48:37;;;;;;;8.63;7.43;;;;;;;18.30;82.31;99434.91;5075873;28;20195;-73
2021/09/16 07:51:04;;;;;;;12.07;7.70;;;;;;;18.50;80.63;99427.59;5075848;28;20219;-74
2021/09/16 07:53:31;;;;;;;11.85;7.82;;;;;;;18.54;80.28;99439.06;5075480;28;20249;-74
2021/09/16 07:55:58;;;;;;;8.73;7.00;;;;;;;18.59;79.53;99438.63;5075795;28;20258;-73
2021/09/16 07:58:26;;;;;;;10.35;7.03;;;;;;;18.75;79.29;99449.84;5075540;28;20615;-74
2021/09/16 08:00:53;;;;;;;8.43;7.30;;;;;;;18.81;78.94;99449.28;5075141;28;20630;-74
2021/09/16 08:03:20;;;;;;;8.65;7.65;;;;;;;18.98;77.68;99449.56;5074879;28;20291;-74
2021/09/16 08:05:47;;;;;;;8.27;7.47;;;;;;;18.65;78.29;99449.81;5075423;28;20615;-74
2021/09/16 08:08:14;;;;;;;8.90;8.00;;;;;;;18.66;78.61;99445.25;5075173;28;20210;-74
2021/09/16 08:10:40;;;;;;;7.53;6.82;;;;;;;18.39;80.25;99446.84;5075329;28;20190;-73
2021/09/16 08:13:07;;;;;;;8.73;7.00;;;;;;;18.67;78.34;99452.41;5075898;28;20204;-74
2021/09/16 08:15:35;;;;;;;8.52;6.63;;;;;;;19.10;76.65;99454.69;5075438;28;20693;-73
2021/09/16 08:18:02;;;;;;;8.15;7.20;;;;;;;19.26;75.61;99450.47;5074914;28;20205;-73
2021/09/16 08:20:29;;;;;;;8.98;6.22;;;;;;;18.95;75.21;99454.28;5074562;28;20558;-74
2021/09/16 08:22:55;;;;;;;9.13;7.00;;;;;;;19.49;74.05;99461.88;5074883;28;20196;-74
2021/09/16 08:25:22;;;;;;;12.43;6.37;;;;;;;19.54;72.91;99451.41;5074729;28;20291;-73
2021/09/16 08:27:49;;;;;;;10.13;6.97;;;;;;;19.68;71.66;99448.16;5074645;28;20437;-73
2021/09/16 08:30:15;;;;;;;11.30;6.60;;;;;;;19.53;72.48;99445.03;5074263;28;20477;-73
2021/09/16 08:32:44;;;;;;;9.80;5.93;;;;;;;19.64;71.64;99449.47;5074283;28;20443;-73
2021/09/16 08:35:12;;;;;;;6.97;5.47;;;;;;;20.02;70.36;99458.50;5073220;28;20514;-74
2021/09/16 08:37:38;;;;;;;6.03;5.23;;;;;;;20.01;70.33;99451.31;5072199;28;20443;-74
2021/09/16 08:40:06;;;;;;;6.40;5.80;;;;;;;19.97;69.97;99455.38;5072569;28;20565;-73
2021/09/16 08:42:33;;;;;;;6.83;5.30;;;;;;;19.89;69.26;99458.00;5073563;28;20466;-73
2021/09/16 08:45:00;;;;;;;7.10;5.30;;;;;;;19.44;71.07;99461.47;5073776;28;20505;-74
2021/09/16 08:47:27;;;;;;;7.10;4.97;;;;;;;19.48;71.19;99455.56;5072893;28;20450;-74
2021/09/16 08:49:55;;;;;;;8.87;5.07;;;;;;;19.38;71.58;99458.34;5073122;28;20432;-73
2021/09/16 08:52:22;;;;;;;5.80;4.93;;;;;;;19.17;71.31;99457.69;5073031;28;20426;-74
2021/09/16 08:54:50;;;;;;;5.90;4.97;;;;;;;19.30;71.55;99462.81;5073663;28;20450;-73
2021/09/16 08:57:18;;;;;;;4.77;4.37;;;;;;;19.28;70.47;99471.16;5074004;28;20963;-73
2021/09/16 08:59:46;;;;;;;9.10;4.37;;;;;;;19.73;70.45;99469.59;5073476;28;20423;-73
2021/09/16 09:02:13;;;;;;;6.73;4.90;;;;;;;19.83;69.89;99461.34;5072942;28;20483;-73
2021/09/16 09:04:40;;;;;;;6.67;4.43;;;;;;;19.94;69.06;99469.31;5073491;28;20423;-73
2021/09/16 09:07:08;;;;;;;4.90;4.23;;;;;;;19.29;69.84;99472.03;5073416;28;20442;-74
2021/09/16 09:09:35;;;;;;;6.07;5.38;;;;;;;19.21;69.21;99471.91;5072247;28;20537;-74
2021/09/16 09:12:08;;;;;;;5.72;3.95;;;;;;;19.04;70.31;99473.50;5072537;28;20656;-74
2021/09/16 09:14:36;;;;;;;7.00;4.63;;;;;;;19.16;70.10;99470.47;5072789;28;20195;-74
2021/09/16 09:17:17;;;;;;;4.93;4.40;;;;;;;19.61;68.59;99479.81;5073108;28;20310;-74
2021/09/16 09:19:46;;;;;;;5.43;4.80;;;;;;;19.62;67.79;99470.59;5073225;28;20228;-74
2021/09/16 09:22:14;;;;;;;6.63;3.80;;;;;;;19.37;67.48;99466.66;5073201;28;20244;-73
2021/09/16 09:24:44;;;;;;;6.72;4.25;;;;;;;19.36;66.54;99468.56;5073479;28;20196;-73
2021/09/16 09:27:23;;;;;;;5.32;4.10;;;;;;;19.54;65.93;99465.03;5073108;28;20411;-73
2021/09/16 09:30:11;;;;;;;5.28;3.90;;;;;;;19.56;65.25;99474.81;5072680;28;20634;-72
2021/09/16 09:32:48;;;;;;;4.53;4.00;;;;;;;19.58;64.72;99470.06;5073049;28;20207;-74
2021/09/16 09:35:30;;;;;;;7.40;4.93;;;;;;;20.06;63.68;99470.84;5072778;28;20442;-73
2021/09/16 09:38:01;;;;;;;6.47;5.30;;;;;;;20.18;62.76;99468.75;5072947;28;20185;-73
2021/09/16 09:40:30;;;;;;;4.90;4.03;;;;;;;20.25;61.56;99463.53;5072786;28;20224;-73
2021/09/16 09:43:19;;;;;;;5.20;3.67;;;;;;;20.48;60.72;99459.31;5072788;28;20430;-73
2021/09/16 09:46:02;;;;;;;4.77;3.93;;;;;;;21.10;59.07;99467.59;5073097;28;20469;-73
2021/09/16 09:48:28;;;;;;;4.63;3.83;;;;;;;21.65;56.12;99466.41;5073265;28;20415;-73
2021/09/16 09:50:56;;;;;;;4.03;3.30;;;;;;;21.70;54.75;99465.91;5073134;28;20470;-73
2021/09/16 09:53:24;;;;;;;4.27;3.73;;;;;;;21.26;56.21;99466.00;5072524;28;20438;-73
2021/09/16 09:55:51;;;;;;;5.80;3.80;;;;;;;20.94;57.73;99470.19;5073373;28;20577;-73
2021/09/16 09:58:31;;;;;;;4.90;3.50;;;;;;;20.32;59.99;99470.94;5073031;28;20496;-73
2021/09/16 10:00:57;;;;;;;5.13;3.90;;;;;;;20.08;61.60;99467.94;5072700;28;20967;-73
2021/09/16 10:03:28;;;;;;;5.03;4.30;;;;;;;19.78;63.78;99480.91;5072916;28;20426;-72
2021/09/16 10:06:08;;;;;;;5.53;4.20;;;;;;;20.03;63.64;99487.53;5072169;28;20442;-74
2021/09/16 10:08:36;;;;;;;5.20;4.70;;;;;;;20.11;64.44;99484.06;5073001;28;20422;-74
2021/09/16 10:11:03;;;;;;;5.60;4.43;;;;;;;19.92;65.15;99490.47;5072427;28;20506;-74
2021/09/16 10:13:32;;;;;;;5.27;4.77;;;;;;;19.82;64.74;99482.34;5071512;28;20434;-74
2021/09/16 10:16:03;;;;;;;12.70;4.60;;;;;;;19.88;64.51;99481.75;5071461;28;20485;-73
2021/09/16 10:18:31;;;;;;;4.80;4.33;;;;;;;19.76;64.83;99491.13;5072030;28;20427;-73
2021/09/16 10:20:59;;;;;;;5.10;4.53;;;;;;;20.17;64.40;99478.84;5072275;28;20968;-73
2021/09/16 10:23:28;;;;;;;6.30;4.33;;;;;;;20.10;64.76;99488.66;5072030;28;20798;-74
2021/09/16 10:25:56;;;;;;;4.03;3.63;;;;;;;20.47;62.79;99479.50;5066538;28;20998;-74
2021/09/16 10:28:23;;;;;;;4.90;4.10;;;;;;;20.27;63.31;99478.75;5073184;28;20533;-74
2021/09/16 10:30:51;;;;;;;5.70;4.03;;;;;;;20.09;64.01;99475.16;5073153;28;20435;-74
2021/09/16 10:33:18;;;;;;;5.43;3.97;;;;;;;20.00;64.98;99477.78;5073099;28;20954;-74
2021/09/16 10:35:47;;;;;;;5.00;4.40;;;;;;;20.59;62.60;99470.06;5073588;28;20493;-74
2021/09/16 10:38:19;;;;;;;4.47;4.07;;;;;;;21.21;61.19;99467.31;5073296;28;20457;-73
2021/09/16 10:40:46;;;;;;;6.00;5.10;;;;;;;21.44;60.09;99467.66;5072810;28;20553;-74
2021/09/16 10:43:22;;;;;;;5.17;4.50;;;;;;;21.36;60.49;99459.34;5072877;28;20526;-73
2021/09/16 10:45:49;;;;;;;4.60;4.20;;;;;;;21.10;60.54;99469.44;5072750;28;20792;-73
2021/09/16 10:48:32;;;;;;;4.00;3.60;;;;;;;21.09;59.39;99462.25;5073045;28;20434;-74
2021/09/16 10:51:02;;;;;;;4.53;3.80;;;;;;;20.89;60.54;99458.84;5072671;28;20439;-74
2021/09/16 10:53:36;;;;;;;3.90;3.50;;;;;;;21.60;58.89;99452.34;5072394;28;20446;-74
2021/09/16 10:56:04;;;;;;;4.50;4.10;;;;;;;21.68;58.13;99452.38;5072968;28;20774;-74
2021/09/16 10:58:32;;;;;;;5.70;4.60;;;;;;;21.77;57.55;99459.59;5073636;28;20458;-75
2021/09/16 11:00:59;;;;;;;4.07;3.13;;;;;;;21.79;57.08;99470.41;5076656;28;20490;-74
2021/09/16 11:03:26;;;;;;;3.73;3.43;;;;;;;21.85;57.24;99464.28;5076319;28;20463;-75
2021/09/16 11:06:00;;;;;;;4.23;3.83;;;;;;;21.86;56.42;99466.81;5076433;28;20884;-74
2021/09/16 11:09:01;;;;;;;4.57;3.00;;;;;;;21.90;56.08;99461.03;5076556;28;20431;-74
2021/09/16 11:11:54;;;;;;;4.37;3.97;;;;;;;22.17;55.50;99449.81;5076215;28;20423;-74
2021/09/16 11:14:46;;;;;;;4.13;3.67;;;;;;;22.32;55.05;99454.66;5056103;28;20763;-74
2021/09/16 11:17:13;;;;;;;3.90;2.93;;;;;;;22.40;54.79;99446.47;5060800;28;20525;-72
2021/09/16 11:19:47;;;;;;;3.53;3.20;;;;;;;22.31;54.55;99456.56;5076086;28;20476;-73
2021/09/16 11:22:21;;;;;;;4.67;3.43;;;;;;;22.15;55.46;99449.13;5075953;28;20485;-74
2021/09/16 11:24:48;;;;;;;3.50;3.20;;;;;;;22.41;54.87;99451.78;5075223;28;20427;-74